sensor_id;sensor_type;location;lat;lon;timestamp;temperature;humidity
1704;DHT22;849;48.780;9.216;2023-06-22T00:00:01;25.20;99.90
1704;DHT22;849;48.780;9.216;2023-06-22T00:02:38;25.20;99.90
1704;DHT22;849;48.780;9.216;2023-06-22T00:05:09;25.20;99.90
1704;DHT22;849;48.780;9.216;2023-06-22T00:07:40;25.00;99.90
1704;DHT22;849;48.780;9.216;2023-06-22T00:10:11;25.00;99.90
1704;DHT22;849;48.780;9.216;2023-06-22T00:12:42;24.90;99.90
1704;DHT22;849;48.780;9.216;2023-06-22T00:15:12;24.90;99.90
1704;DHT22;849;48.780;9.216;2023-06-22T00:17:45;24.80;99.90
1704;DHT22;849;48.780;9.216;2023-06-22T00:20:16;24.80;99.90
1704;DHT22;849;48.780;9.216;2023-06-22T00:22:48;24.80;99.90
1704;DHT22;849;48.780;9.216;2023-06-22T00:25:19;24.80;99.90
1704;DHT22;849;48.780;9.216;2023-06-22T00:27:50;24.80;99.90
1704;DHT22;849;48.780;9.216;2023-06-22T00:30:21;24.80;99.90
1704;DHT22;849;48.780;9.216;2023-06-22T00:32:52;24.70;99.90
1704;DHT22;849;48.780;9.216;2023-06-22T00:35:23;24.80;99.90
1704;DHT22;849;48.780;9.216;2023-06-22T00:37:54;24.80;99.90
1704;DHT22;849;48.780;9.216;2023-06-22T00:40:32;24.70;99.90
1704;DHT22;849;48.780;9.216;2023-06-22T00:43:03;24.70;99.90
1704;DHT22;849;48.780;9.216;2023-06-22T00:45:35;24.70;99.90
1704;DHT22;849;48.780;9.216;2023-06-22T00:48:06;24.70;99.90
1704;DHT22;849;48.780;9.216;2023-06-22T00:50:37;24.80;99.90
1704;DHT22;849;48.780;9.216;2023-06-22T00:53:08;24.70;99.90
1704;DHT22;849;48.780;9.216;2023-06-22T00:55:44;24.70;99.90
1704;DHT22;849;48.780;9.216;2023-06-22T00:58:15;24.60;99.90
1704;DHT22;849;48.780;9.216;2023-06-22T01:00:47;24.70;99.90
1704;DHT22;849;48.780;9.216;2023-06-22T01:03:17;24.70;99.90
1704;DHT22;849;48.780;9.216;2023-06-22T01:05:49;24.60;99.90
1704;DHT22;849;48.780;9.216;2023-06-22T01:08:31;24.70;99.90
1704;DHT22;849;48.780;9.216;2023-06-22T01:11:10;24.60;99.90
1704;DHT22;849;48.780;9.216;2023-06-22T01:14:06;24.50;99.90
1704;DHT22;849;48.780;9.216;2023-06-22T01:16:41;24.60;99.90
1704;DHT22;849;48.780;9.216;2023-06-22T01:22:20;24.40;99.90
1704;DHT22;849;48.780;9.216;2023-06-22T01:25:02;24.40;99.90
1704;DHT22;849;48.780;9.216;2023-06-22T01:27:58;24.50;99.90
1704;DHT22;849;48.780;9.216;2023-06-22T01:30:33;24.30;99.90
1704;DHT22;849;48.780;9.216;2023-06-22T01:33:05;24.40;99.90
1704;DHT22;849;48.780;9.216;2023-06-22T01:35:37;24.40;99.90
1704;DHT22;849;48.780;9.216;2023-06-22T01:38:09;24.20;99.90
1704;DHT22;849;48.780;9.216;2023-06-22T01:40:40;24.00;99.90
1704;DHT22;849;48.780;9.216;2023-06-22T01:43:11;23.90;99.90
1704;DHT22;849;48.780;9.216;2023-06-22T01:45:42;24.00;99.90
1704;DHT22;849;48.780;9.216;2023-06-22T01:48:13;23.80;99.90
1704;DHT22;849;48.780;9.216;2023-06-22T01:50:44;23.90;99.90
1704;DHT22;849;48.780;9.216;2023-06-22T01:53:15;23.60;99.90
1704;DHT22;849;48.780;9.216;2023-06-22T01:55:46;23.70;99.90
1704;DHT22;849;48.780;9.216;2023-06-22T01:58:20;23.70;99.90
1704;DHT22;849;48.780;9.216;2023-06-22T02:00:58;23.80;99.90
1704;DHT22;849;48.780;9.216;2023-06-22T02:03:33;23.60;99.90
1704;DHT22;849;48.780;9.216;2023-06-22T02:06:16;23.80;99.90
1704;DHT22;849;48.780;9.216;2023-06-22T02:08:51;23.80;99.90
1704;DHT22;849;48.780;9.216;2023-06-22T02:11:26;23.90;99.90
1704;DHT22;849;48.780;9.216;2023-06-22T02:13:58;24.00;99.90
1704;DHT22;849;48.780;9.216;2023-06-22T02:16:31;24.10;99.90
1704;DHT22;849;48.780;9.216;2023-06-22T02:19:03;24.10;99.90
1704;DHT22;849;48.780;9.216;2023-06-22T02:21:34;24.20;99.90
1704;DHT22;849;48.780;9.216;2023-06-22T02:24:05;24.10;99.90
1704;DHT22;849;48.780;9.216;2023-06-22T02:26:36;24.10;99.90
1704;DHT22;849;48.780;9.216;2023-06-22T02:29:09;24.00;99.90
1704;DHT22;849;48.780;9.216;2023-06-22T02:31:39;23.90;99.90
1704;DHT22;849;48.780;9.216;2023-06-22T02:34:10;23.90;99.90
1704;DHT22;849;48.780;9.216;2023-06-22T02:36:46;23.80;99.90
1704;DHT22;849;48.780;9.216;2023-06-22T02:39:24;23.80;99.90
1704;DHT22;849;48.780;9.216;2023-06-22T02:41:55;24.00;99.90
1704;DHT22;849;48.780;9.216;2023-06-22T02:44:26;24.10;99.90
1704;DHT22;849;48.780;9.216;2023-06-22T02:46:57;24.10;99.90
1704;DHT22;849;48.780;9.216;2023-06-22T02:49:28;24.10;99.90
1704;DHT22;849;48.780;9.216;2023-06-22T02:51:59;24.00;99.90
1704;DHT22;849;48.780;9.216;2023-06-22T02:54:30;23.90;99.90
1704;DHT22;849;48.780;9.216;2023-06-22T02:57:01;23.80;99.90
1704;DHT22;849;48.780;9.216;2023-06-22T02:59:33;23.90;99.90
1704;DHT22;849;48.780;9.216;2023-06-22T03:02:04;23.80;99.90
1704;DHT22;849;48.780;9.216;2023-06-22T03:04:35;23.80;99.90
1704;DHT22;849;48.780;9.216;2023-06-22T03:07:06;23.80;99.90
1704;DHT22;849;48.780;9.216;2023-06-22T03:09:37;23.80;99.90
1704;DHT22;849;48.780;9.216;2023-06-22T03:12:08;23.90;99.90
1704;DHT22;849;48.780;9.216;2023-06-22T03:14:39;23.80;99.90
1704;DHT22;849;48.780;9.216;2023-06-22T03:17:09;23.80;99.90
1704;DHT22;849;48.780;9.216;2023-06-22T03:19:41;23.90;99.90
1704;DHT22;849;48.780;9.216;2023-06-22T03:22:12;23.80;99.90
1704;DHT22;849;48.780;9.216;2023-06-22T03:24:43;23.70;99.90
1704;DHT22;849;48.780;9.216;2023-06-22T03:27:13;23.70;99.90
1704;DHT22;849;48.780;9.216;2023-06-22T03:29:39;23.80;99.90
1704;DHT22;849;48.780;9.216;2023-06-22T03:32:10;23.70;99.90
1704;DHT22;849;48.780;9.216;2023-06-22T03:34:41;23.60;99.90
1704;DHT22;849;48.780;9.216;2023-06-22T03:37:17;23.60;99.90
1704;DHT22;849;48.780;9.216;2023-06-22T03:39:48;23.60;99.90
1704;DHT22;849;48.780;9.216;2023-06-22T03:42:19;23.60;99.90
1704;DHT22;849;48.780;9.216;2023-06-22T03:44:49;23.50;99.90
1704;DHT22;849;48.780;9.216;2023-06-22T03:47:20;23.40;99.90
1704;DHT22;849;48.780;9.216;2023-06-22T03:49:46;23.40;99.90
1704;DHT22;849;48.780;9.216;2023-06-22T03:52:17;23.40;99.90
1704;DHT22;849;48.780;9.216;2023-06-22T03:54:48;23.40;99.90
1704;DHT22;849;48.780;9.216;2023-06-22T03:57:19;23.50;99.90
1704;DHT22;849;48.780;9.216;2023-06-22T03:59:50;23.50;99.90
1704;DHT22;849;48.780;9.216;2023-06-22T04:02:20;23.50;99.90
1704;DHT22;849;48.780;9.216;2023-06-22T04:04:51;23.50;99.90
1704;DHT22;849;48.780;9.216;2023-06-22T04:07:22;23.50;99.90
1704;DHT22;849;48.780;9.216;2023-06-22T04:09:53;23.60;99.90
1704;DHT22;849;48.780;9.216;2023-06-22T04:12:24;23.70;99.90
1704;DHT22;849;48.780;9.216;2023-06-22T04:14:54;23.70;99.90
1704;DHT22;849;48.780;9.216;2023-06-22T04:17:25;23.80;99.90
1704;DHT22;849;48.780;9.216;2023-06-22T04:19:56;23.70;99.90
1704;DHT22;849;48.780;9.216;2023-06-22T04:22:27;23.60;99.90
1704;DHT22;849;48.780;9.216;2023-06-22T04:24:58;23.60;99.90
1704;DHT22;849;48.780;9.216;2023-06-22T04:27:28;23.60;99.90
1704;DHT22;849;48.780;9.216;2023-06-22T04:29:59;23.70;99.90
1704;DHT22;849;48.780;9.216;2023-06-22T04:32:30;23.80;99.90
1704;DHT22;849;48.780;9.216;2023-06-22T04:34:56;23.80;99.90
1704;DHT22;849;48.780;9.216;2023-06-22T04:37:27;23.80;99.90
1704;DHT22;849;48.780;9.216;2023-06-22T04:39:58;23.80;99.90
1704;DHT22;849;48.780;9.216;2023-06-22T04:42:29;23.80;99.90
1704;DHT22;849;48.780;9.216;2023-06-22T04:45:01;23.80;99.90
1704;DHT22;849;48.780;9.216;2023-06-22T04:47:31;23.90;99.90
1704;DHT22;849;48.780;9.216;2023-06-22T04:50:02;23.90;99.90
1704;DHT22;849;48.780;9.216;2023-06-22T04:52:36;23.90;99.90
1704;DHT22;849;48.780;9.216;2023-06-22T04:55:07;24.00;99.90
1704;DHT22;849;48.780;9.216;2023-06-22T04:57:39;24.00;99.90
1704;DHT22;849;48.780;9.216;2023-06-22T05:00:10;23.90;99.90
1704;DHT22;849;48.780;9.216;2023-06-22T05:02:43;23.90;99.90
1704;DHT22;849;48.780;9.216;2023-06-22T05:05:15;23.80;99.90
1704;DHT22;849;48.780;9.216;2023-06-22T05:07:47;23.80;99.90
1704;DHT22;849;48.780;9.216;2023-06-22T05:10:23;23.80;99.90
1704;DHT22;849;48.780;9.216;2023-06-22T05:12:54;23.80;99.90
1704;DHT22;849;48.780;9.216;2023-06-22T05:15:24;23.90;99.90
1704;DHT22;849;48.780;9.216;2023-06-22T05:17:58;23.90;99.90
1704;DHT22;849;48.780;9.216;2023-06-22T05:20:30;23.90;99.90
1704;DHT22;849;48.780;9.216;2023-06-22T05:23:01;23.90;99.90
1704;DHT22;849;48.780;9.216;2023-06-22T05:25:31;24.10;99.90
1704;DHT22;849;48.780;9.216;2023-06-22T05:28:03;24.20;99.90
1704;DHT22;849;48.780;9.216;2023-06-22T05:30:37;24.20;99.90
1704;DHT22;849;48.780;9.216;2023-06-22T05:33:08;24.20;99.90
1704;DHT22;849;48.780;9.216;2023-06-22T05:35:39;24.20;99.90
1704;DHT22;849;48.780;9.216;2023-06-22T05:38:09;24.30;99.90
1704;DHT22;849;48.780;9.216;2023-06-22T05:40:40;24.30;99.90
1704;DHT22;849;48.780;9.216;2023-06-22T05:43:11;24.00;99.90
1704;DHT22;849;48.780;9.216;2023-06-22T05:45:42;23.80;99.90
1704;DHT22;849;48.780;9.216;2023-06-22T05:48:12;23.70;99.90
1704;DHT22;849;48.780;9.216;2023-06-22T05:50:43;23.60;99.90
1704;DHT22;849;48.780;9.216;2023-06-22T05:53:14;23.50;99.90
1704;DHT22;849;48.780;9.216;2023-06-22T05:55:45;23.40;99.90
1704;DHT22;849;48.780;9.216;2023-06-22T05:58:16;23.50;99.90
1704;DHT22;849;48.780;9.216;2023-06-22T06:00:47;23.40;99.90
1704;DHT22;849;48.780;9.216;2023-06-22T06:03:18;23.40;99.90
1704;DHT22;849;48.780;9.216;2023-06-22T06:05:49;23.40;99.90
1704;DHT22;849;48.780;9.216;2023-06-22T06:08:20;23.40;99.90
1704;DHT22;849;48.780;9.216;2023-06-22T06:10:51;23.20;99.90
1704;DHT22;849;48.780;9.216;2023-06-22T06:13:24;23.30;99.90
1704;DHT22;849;48.780;9.216;2023-06-22T06:15:56;23.50;99.90
1704;DHT22;849;48.780;9.216;2023-06-22T06:18:27;23.60;99.90
1704;DHT22;849;48.780;9.216;2023-06-22T06:20:57;23.60;99.90
1704;DHT22;849;48.780;9.216;2023-06-22T06:23:24;23.60;99.90
1704;DHT22;849;48.780;9.216;2023-06-22T06:25:54;23.50;99.90
1704;DHT22;849;48.780;9.216;2023-06-22T06:28:25;23.50;99.90
1704;DHT22;849;48.780;9.216;2023-06-22T06:30:56;23.60;99.90
1704;DHT22;849;48.780;9.216;2023-06-22T06:33:27;23.90;99.90
1704;DHT22;849;48.780;9.216;2023-06-22T06:35:58;23.70;99.90
1704;DHT22;849;48.780;9.216;2023-06-22T06:38:30;23.70;99.90
1704;DHT22;849;48.780;9.216;2023-06-22T06:41:01;23.70;99.90
1704;DHT22;849;48.780;9.216;2023-06-22T06:43:31;23.80;99.90
1704;DHT22;849;48.780;9.216;2023-06-22T06:46:02;23.70;99.90
1704;DHT22;849;48.780;9.216;2023-06-22T06:48:33;23.60;99.90
1704;DHT22;849;48.780;9.216;2023-06-22T06:51:04;23.60;99.90
1704;DHT22;849;48.780;9.216;2023-06-22T06:53:37;23.70;99.90
1704;DHT22;849;48.780;9.216;2023-06-22T06:56:08;23.70;99.90
1704;DHT22;849;48.780;9.216;2023-06-22T06:58:41;23.80;99.90
1704;DHT22;849;48.780;9.216;2023-06-22T07:01:13;24.00;99.90
1704;DHT22;849;48.780;9.216;2023-06-22T07:03:43;24.10;99.90
1704;DHT22;849;48.780;9.216;2023-06-22T07:06:14;24.20;99.90
1704;DHT22;849;48.780;9.216;2023-06-22T07:08:46;24.20;99.90
1704;DHT22;849;48.780;9.216;2023-06-22T07:11:17;24.10;99.90
1704;DHT22;849;48.780;9.216;2023-06-22T07:13:48;24.20;99.90
1704;DHT22;849;48.780;9.216;2023-06-22T07:16:19;24.20;99.90
1704;DHT22;849;48.780;9.216;2023-06-22T07:18:50;24.30;99.90
1704;DHT22;849;48.780;9.216;2023-06-22T07:21:20;24.30;99.90
1704;DHT22;849;48.780;9.216;2023-06-22T07:23:51;24.30;99.90
1704;DHT22;849;48.780;9.216;2023-06-22T07:26:22;24.20;99.90
1704;DHT22;849;48.780;9.216;2023-06-22T07:28:53;24.40;99.90
1704;DHT22;849;48.780;9.216;2023-06-22T07:31:26;24.40;99.90
1704;DHT22;849;48.780;9.216;2023-06-22T07:33:57;24.40;99.90
1704;DHT22;849;48.780;9.216;2023-06-22T07:36:28;24.60;99.90
1704;DHT22;849;48.780;9.216;2023-06-22T07:39:01;24.80;99.90
1704;DHT22;849;48.780;9.216;2023-06-22T07:41:32;24.70;99.90
1704;DHT22;849;48.780;9.216;2023-06-22T07:44:03;24.60;99.90
1704;DHT22;849;48.780;9.216;2023-06-22T07:46:34;24.80;99.90
1704;DHT22;849;48.780;9.216;2023-06-22T07:49:05;25.00;99.90
1704;DHT22;849;48.780;9.216;2023-06-22T07:51:36;25.10;99.90
1704;DHT22;849;48.780;9.216;2023-06-22T07:54:06;24.90;99.90
1704;DHT22;849;48.780;9.216;2023-06-22T07:56:37;25.00;99.90
1704;DHT22;849;48.780;9.216;2023-06-22T07:59:08;25.10;99.90
1704;DHT22;849;48.780;9.216;2023-06-22T08:01:39;25.10;99.90
1704;DHT22;849;48.780;9.216;2023-06-22T08:04:10;25.10;99.90
1704;DHT22;849;48.780;9.216;2023-06-22T08:06:41;25.20;99.90
1704;DHT22;849;48.780;9.216;2023-06-22T08:09:12;25.30;99.90
1704;DHT22;849;48.780;9.216;2023-06-22T08:11:43;25.20;99.90
1704;DHT22;849;48.780;9.216;2023-06-22T08:14:13;25.10;99.90
1704;DHT22;849;48.780;9.216;2023-06-22T08:16:44;25.10;99.90
1704;DHT22;849;48.780;9.216;2023-06-22T08:19:15;25.10;99.90
1704;DHT22;849;48.780;9.216;2023-06-22T08:21:46;25.40;99.90
1704;DHT22;849;48.780;9.216;2023-06-22T08:24:17;25.60;99.90
1704;DHT22;849;48.780;9.216;2023-06-22T08:26:51;25.70;99.90
1704;DHT22;849;48.780;9.216;2023-06-22T08:29:22;25.70;99.90
1704;DHT22;849;48.780;9.216;2023-06-22T08:31:53;25.60;99.90
1704;DHT22;849;48.780;9.216;2023-06-22T08:34:24;25.80;99.90
1704;DHT22;849;48.780;9.216;2023-06-22T08:36:56;25.90;99.90
1704;DHT22;849;48.780;9.216;2023-06-22T08:39:26;26.30;99.90
1704;DHT22;849;48.780;9.216;2023-06-22T08:41:58;26.20;99.90
1704;DHT22;849;48.780;9.216;2023-06-22T08:44:29;26.50;99.90
1704;DHT22;849;48.780;9.216;2023-06-22T08:47:00;26.60;99.90
1704;DHT22;849;48.780;9.216;2023-06-22T08:49:30;26.70;99.90
1704;DHT22;849;48.780;9.216;2023-06-22T08:52:01;26.80;99.90
1704;DHT22;849;48.780;9.216;2023-06-22T08:54:32;26.80;99.90
1704;DHT22;849;48.780;9.216;2023-06-22T08:57:05;26.90;99.90
1704;DHT22;849;48.780;9.216;2023-06-22T08:59:36;26.80;99.90
1704;DHT22;849;48.780;9.216;2023-06-22T09:02:07;27.00;99.90
1704;DHT22;849;48.780;9.216;2023-06-22T09:04:37;27.40;99.90
1704;DHT22;849;48.780;9.216;2023-06-22T09:07:08;27.50;99.90
1704;DHT22;849;48.780;9.216;2023-06-22T09:09:39;27.30;99.90
1704;DHT22;849;48.780;9.216;2023-06-22T09:12:10;27.30;99.90
1704;DHT22;849;48.780;9.216;2023-06-22T09:14:41;27.40;99.90
1704;DHT22;849;48.780;9.216;2023-06-22T09:17:12;27.60;99.90
1704;DHT22;849;48.780;9.216;2023-06-22T09:19:43;27.80;99.90
1704;DHT22;849;48.780;9.216;2023-06-22T09:22:14;28.10;99.90
1704;DHT22;849;48.780;9.216;2023-06-22T09:24:45;28.30;99.90
1704;DHT22;849;48.780;9.216;2023-06-22T09:27:16;28.00;99.90
1704;DHT22;849;48.780;9.216;2023-06-22T09:29:47;27.60;99.90
1704;DHT22;849;48.780;9.216;2023-06-22T09:32:17;27.40;99.90
1704;DHT22;849;48.780;9.216;2023-06-22T09:34:43;27.80;99.90
1704;DHT22;849;48.780;9.216;2023-06-22T09:37:14;28.10;99.90
1704;DHT22;849;48.780;9.216;2023-06-22T09:39:45;28.50;99.90
1704;DHT22;849;48.780;9.216;2023-06-22T09:42:16;28.40;99.90
1704;DHT22;849;48.780;9.216;2023-06-22T09:44:47;28.10;99.90
1704;DHT22;849;48.780;9.216;2023-06-22T09:47:17;27.70;99.90
1704;DHT22;849;48.780;9.216;2023-06-22T09:49:48;27.90;99.90
1704;DHT22;849;48.780;9.216;2023-06-22T09:52:19;28.00;99.90
1704;DHT22;849;48.780;9.216;2023-06-22T09:54:50;27.80;99.90
1704;DHT22;849;48.780;9.216;2023-06-22T09:57:20;27.60;99.90
1704;DHT22;849;48.780;9.216;2023-06-22T09:59:51;27.60;99.90
1704;DHT22;849;48.780;9.216;2023-06-22T10:02:22;27.60;99.90
1704;DHT22;849;48.780;9.216;2023-06-22T10:04:53;27.60;99.90
1704;DHT22;849;48.780;9.216;2023-06-22T10:07:23;27.90;99.90
1704;DHT22;849;48.780;9.216;2023-06-22T10:09:54;28.20;99.90
1704;DHT22;849;48.780;9.216;2023-06-22T10:12:27;28.30;99.90
1704;DHT22;849;48.780;9.216;2023-06-22T10:14:58;28.30;99.90
1704;DHT22;849;48.780;9.216;2023-06-22T10:17:28;28.30;99.90
1704;DHT22;849;48.780;9.216;2023-06-22T10:20:00;28.30;99.90
1704;DHT22;849;48.780;9.216;2023-06-22T10:22:31;28.60;99.90
1704;DHT22;849;48.780;9.216;2023-06-22T10:25:02;28.60;99.90
1704;DHT22;849;48.780;9.216;2023-06-22T10:27:33;28.70;99.90
1704;DHT22;849;48.780;9.216;2023-06-22T10:30:04;28.80;99.90
1704;DHT22;849;48.780;9.216;2023-06-22T10:32:38;28.80;99.90
1704;DHT22;849;48.780;9.216;2023-06-22T10:35:09;28.70;99.90
1704;DHT22;849;48.780;9.216;2023-06-22T10:37:46;28.90;99.90
1704;DHT22;849;48.780;9.216;2023-06-22T10:40:17;28.80;99.90
1704;DHT22;849;48.780;9.216;2023-06-22T10:42:49;28.70;99.90
1704;DHT22;849;48.780;9.216;2023-06-22T10:45:20;28.80;99.90
1704;DHT22;849;48.780;9.216;2023-06-22T10:47:51;28.70;99.90
1704;DHT22;849;48.780;9.216;2023-06-22T10:50:22;28.80;99.90
1704;DHT22;849;48.780;9.216;2023-06-22T10:52:54;29.10;99.90
1704;DHT22;849;48.780;9.216;2023-06-22T10:55:25;29.40;99.90
1704;DHT22;849;48.780;9.216;2023-06-22T10:57:56;29.50;99.90
1704;DHT22;849;48.780;9.216;2023-06-22T11:00:27;29.70;99.90
1704;DHT22;849;48.780;9.216;2023-06-22T11:02:57;29.50;99.90
1704;DHT22;849;48.780;9.216;2023-06-22T11:05:29;29.80;99.90
1704;DHT22;849;48.780;9.216;2023-06-22T11:07:59;29.90;99.90
1704;DHT22;849;48.780;9.216;2023-06-22T11:10:30;30.00;99.90
1704;DHT22;849;48.780;9.216;2023-06-22T11:13:01;30.00;99.90
1704;DHT22;849;48.780;9.216;2023-06-22T11:15:33;29.90;99.90
1704;DHT22;849;48.780;9.216;2023-06-22T11:18:04;30.20;99.90
1704;DHT22;849;48.780;9.216;2023-06-22T11:20:35;30.20;99.90
1704;DHT22;849;48.780;9.216;2023-06-22T11:23:09;30.00;99.90
1704;DHT22;849;48.780;9.216;2023-06-22T11:25:40;30.20;99.90
1704;DHT22;849;48.780;9.216;2023-06-22T11:28:13;30.00;99.90
1704;DHT22;849;48.780;9.216;2023-06-22T11:30:44;29.90;99.90
1704;DHT22;849;48.780;9.216;2023-06-22T11:33:14;29.60;99.90
1704;DHT22;849;48.780;9.216;2023-06-22T11:35:45;29.60;99.90
1704;DHT22;849;48.780;9.216;2023-06-22T11:38:16;29.60;99.90
1704;DHT22;849;48.780;9.216;2023-06-22T11:40:47;29.60;99.90
1704;DHT22;849;48.780;9.216;2023-06-22T11:43:18;29.90;99.90
1704;DHT22;849;48.780;9.216;2023-06-22T11:45:45;30.00;99.90
1704;DHT22;849;48.780;9.216;2023-06-22T11:48:27;30.30;99.90
1704;DHT22;849;48.780;9.216;2023-06-22T11:50:53;30.00;98.70
1704;DHT22;849;48.780;9.216;2023-06-22T11:53:26;30.00;99.60
1704;DHT22;849;48.780;9.216;2023-06-22T11:55:57;29.90;98.70
1704;DHT22;849;48.780;9.216;2023-06-22T11:58:28;29.90;98.80
1704;DHT22;849;48.780;9.216;2023-06-22T12:00:59;29.90;99.00
1704;DHT22;849;48.780;9.216;2023-06-22T12:03:29;29.90;98.90
1704;DHT22;849;48.780;9.216;2023-06-22T12:06:00;30.00;97.10
1704;DHT22;849;48.780;9.216;2023-06-22T12:08:31;30.00;96.70
1704;DHT22;849;48.780;9.216;2023-06-22T12:11:02;30.10;97.00
1704;DHT22;849;48.780;9.216;2023-06-22T12:13:33;30.40;97.30
1704;DHT22;849;48.780;9.216;2023-06-22T12:16:04;30.60;97.30
1704;DHT22;849;48.780;9.216;2023-06-22T12:18:35;30.60;95.00
1704;DHT22;849;48.780;9.216;2023-06-22T12:21:07;30.20;95.50
1704;DHT22;849;48.780;9.216;2023-06-22T12:23:37;29.90;96.40
1704;DHT22;849;48.780;9.216;2023-06-22T12:26:08;30.10;96.80
1704;DHT22;849;48.780;9.216;2023-06-22T12:28:39;30.30;96.50
1704;DHT22;849;48.780;9.216;2023-06-22T12:31:10;30.30;96.70
1704;DHT22;849;48.780;9.216;2023-06-22T12:33:41;30.10;93.50
1704;DHT22;849;48.780;9.216;2023-06-22T12:36:12;29.70;94.50
1704;DHT22;849;48.780;9.216;2023-06-22T12:38:43;29.90;98.30
1704;DHT22;849;48.780;9.216;2023-06-22T12:41:13;30.10;96.00
1704;DHT22;849;48.780;9.216;2023-06-22T12:43:44;30.20;96.40
1704;DHT22;849;48.780;9.216;2023-06-22T12:46:15;30.20;96.10
1704;DHT22;849;48.780;9.216;2023-06-22T12:48:46;30.40;97.80
1704;DHT22;849;48.780;9.216;2023-06-22T12:51:22;30.50;98.50
1704;DHT22;849;48.780;9.216;2023-06-22T12:53:53;30.60;98.30
1704;DHT22;849;48.780;9.216;2023-06-22T12:56:24;30.60;99.00
1704;DHT22;849;48.780;9.216;2023-06-22T12:58:55;30.60;98.90
1704;DHT22;849;48.780;9.216;2023-06-22T13:01:26;30.70;99.40
1704;DHT22;849;48.780;9.216;2023-06-22T13:03:58;30.60;98.30
1704;DHT22;849;48.780;9.216;2023-06-22T13:06:29;30.60;98.40
1704;DHT22;849;48.780;9.216;2023-06-22T13:08:59;30.60;99.70
1704;DHT22;849;48.780;9.216;2023-06-22T13:11:30;30.50;98.60
1704;DHT22;849;48.780;9.216;2023-06-22T13:14:01;30.40;99.30
1704;DHT22;849;48.780;9.216;2023-06-22T13:16:32;30.30;99.00
1704;DHT22;849;48.780;9.216;2023-06-22T13:19:02;30.30;99.00
1704;DHT22;849;48.780;9.216;2023-06-22T13:21:33;30.20;98.50
1704;DHT22;849;48.780;9.216;2023-06-22T13:24:05;30.30;98.40
1704;DHT22;849;48.780;9.216;2023-06-22T13:26:36;30.30;99.60
1704;DHT22;849;48.780;9.216;2023-06-22T13:29:07;30.20;97.80
1704;DHT22;849;48.780;9.216;2023-06-22T13:31:38;30.40;98.80
1704;DHT22;849;48.780;9.216;2023-06-22T13:34:09;30.40;99.10
1704;DHT22;849;48.780;9.216;2023-06-22T13:36:40;30.50;99.30
1704;DHT22;849;48.780;9.216;2023-06-22T13:39:10;30.30;98.30
1704;DHT22;849;48.780;9.216;2023-06-22T13:41:41;30.40;98.50
1704;DHT22;849;48.780;9.216;2023-06-22T13:44:14;30.60;98.30
1704;DHT22;849;48.780;9.216;2023-06-22T13:46:45;30.80;99.20
1704;DHT22;849;48.780;9.216;2023-06-22T13:49:11;30.90;99.10
1704;DHT22;849;48.780;9.216;2023-06-22T13:51:41;30.90;99.30
1704;DHT22;849;48.780;9.216;2023-06-22T13:54:12;30.90;98.70
1704;DHT22;849;48.780;9.216;2023-06-22T13:56:43;31.00;98.20
1704;DHT22;849;48.780;9.216;2023-06-22T13:59:14;31.00;98.40
1704;DHT22;849;48.780;9.216;2023-06-22T14:01:44;31.10;97.80
1704;DHT22;849;48.780;9.216;2023-06-22T14:04:18;31.10;95.00
1704;DHT22;849;48.780;9.216;2023-06-22T14:06:49;31.00;93.80
1704;DHT22;849;48.780;9.216;2023-06-22T14:09:20;30.90;96.80
1704;DHT22;849;48.780;9.216;2023-06-22T14:11:51;31.10;99.10
1704;DHT22;849;48.780;9.216;2023-06-22T14:14:21;31.10;97.20
1704;DHT22;849;48.780;9.216;2023-06-22T14:16:52;31.20;95.80
1704;DHT22;849;48.780;9.216;2023-06-22T14:19:18;31.50;95.50
1704;DHT22;849;48.780;9.216;2023-06-22T14:21:49;31.60;94.80
1704;DHT22;849;48.780;9.216;2023-06-22T14:24:20;31.60;91.60
1704;DHT22;849;48.780;9.216;2023-06-22T14:26:54;31.60;90.30
1704;DHT22;849;48.780;9.216;2023-06-22T14:29:25;31.90;90.90
1704;DHT22;849;48.780;9.216;2023-06-22T14:31:56;31.90;87.40
1704;DHT22;849;48.780;9.216;2023-06-22T14:34:27;31.90;86.00
1704;DHT22;849;48.780;9.216;2023-06-22T14:36:58;31.80;85.20
1704;DHT22;849;48.780;9.216;2023-06-22T14:39:24;31.80;83.90
1704;DHT22;849;48.780;9.216;2023-06-22T14:41:55;31.70;84.10
1704;DHT22;849;48.780;9.216;2023-06-22T14:44:26;31.40;82.30
1704;DHT22;849;48.780;9.216;2023-06-22T14:46:57;31.50;81.60
1704;DHT22;849;48.780;9.216;2023-06-22T14:49:27;31.60;76.20
1704;DHT22;849;48.780;9.216;2023-06-22T14:51:58;31.90;76.20
1704;DHT22;849;48.780;9.216;2023-06-22T14:54:29;32.00;75.00
1704;DHT22;849;48.780;9.216;2023-06-22T14:57:00;31.90;73.30
1704;DHT22;849;48.780;9.216;2023-06-22T14:59:31;32.40;70.70
1704;DHT22;849;48.780;9.216;2023-06-22T15:02:02;32.40;66.10
1704;DHT22;849;48.780;9.216;2023-06-22T15:04:32;32.30;58.90
1704;DHT22;849;48.780;9.216;2023-06-22T15:07:05;32.40;59.10
1704;DHT22;849;48.780;9.216;2023-06-22T15:09:36;32.60;57.90
1704;DHT22;849;48.780;9.216;2023-06-22T15:12:09;32.30;57.50
1704;DHT22;849;48.780;9.216;2023-06-22T15:14:42;32.20;57.70
1704;DHT22;849;48.780;9.216;2023-06-22T15:17:12;32.20;56.50
1704;DHT22;849;48.780;9.216;2023-06-22T15:19:44;31.70;56.50
1704;DHT22;849;48.780;9.216;2023-06-22T15:22:15;31.90;58.40
1704;DHT22;849;48.780;9.216;2023-06-22T15:24:48;32.20;57.80
1704;DHT22;849;48.780;9.216;2023-06-22T15:27:19;32.10;56.90
1704;DHT22;849;48.780;9.216;2023-06-22T15:29:50;32.30;56.10
1704;DHT22;849;48.780;9.216;2023-06-22T15:32:21;32.50;55.30
1704;DHT22;849;48.780;9.216;2023-06-22T15:34:52;32.80;57.10
1704;DHT22;849;48.780;9.216;2023-06-22T15:37:24;33.00;57.00
1704;DHT22;849;48.780;9.216;2023-06-22T15:39:55;32.80;54.80
1704;DHT22;849;48.780;9.216;2023-06-22T15:42:22;32.60;55.70
1704;DHT22;849;48.780;9.216;2023-06-22T15:44:53;32.60;54.70
1704;DHT22;849;48.780;9.216;2023-06-22T15:47:23;32.60;54.00
1704;DHT22;849;48.780;9.216;2023-06-22T15:49:54;32.30;54.50
1704;DHT22;849;48.780;9.216;2023-06-22T15:52:25;32.30;54.00
1704;DHT22;849;48.780;9.216;2023-06-22T15:54:56;32.50;55.20
1704;DHT22;849;48.780;9.216;2023-06-22T15:57:31;32.20;55.40
1704;DHT22;849;48.780;9.216;2023-06-22T16:00:02;32.40;56.40
1704;DHT22;849;48.780;9.216;2023-06-22T16:02:34;32.50;55.60
1704;DHT22;849;48.780;9.216;2023-06-22T16:05:06;32.30;54.40
1704;DHT22;849;48.780;9.216;2023-06-22T16:07:36;32.30;55.20
1704;DHT22;849;48.780;9.216;2023-06-22T16:10:02;31.80;55.80
1704;DHT22;849;48.780;9.216;2023-06-22T16:12:35;32.00;56.20
1704;DHT22;849;48.780;9.216;2023-06-22T16:15:06;31.70;56.70
1704;DHT22;849;48.780;9.216;2023-06-22T16:17:40;31.70;57.20
1704;DHT22;849;48.780;9.216;2023-06-22T16:20:11;31.90;56.60
1704;DHT22;849;48.780;9.216;2023-06-22T16:22:42;31.90;56.30
1704;DHT22;849;48.780;9.216;2023-06-22T16:25:13;32.00;56.90
1704;DHT22;849;48.780;9.216;2023-06-22T16:27:45;31.90;56.80
1704;DHT22;849;48.780;9.216;2023-06-22T16:30:16;31.90;57.90
1704;DHT22;849;48.780;9.216;2023-06-22T16:32:52;31.90;57.50
1704;DHT22;849;48.780;9.216;2023-06-22T16:35:24;31.50;57.30
1704;DHT22;849;48.780;9.216;2023-06-22T16:37:56;31.30;57.70
1704;DHT22;849;48.780;9.216;2023-06-22T16:40:27;31.30;58.40
1704;DHT22;849;48.780;9.216;2023-06-22T16:42:58;31.30;58.70
1704;DHT22;849;48.780;9.216;2023-06-22T16:45:28;31.30;58.70